createdAt,value
2023-04-29T00:00:58.801Z,12817.3848
2023-04-29T00:02:00.269Z,12814.0771
2023-04-29T00:03:01.807Z,12813.7695
2023-04-29T00:04:03.142Z,12812.2305
2023-04-29T00:05:04.611Z,12815.3848
2023-04-29T00:06:06.029Z,12819.8457
2023-04-29T00:07:07.325Z,12819.7695
2023-04-29T00:08:08.782Z,12819.8457
2023-04-29T00:09:10.145Z,12815.6152
2023-04-29T00:10:11.592Z,12820.0000
2023-04-29T00:11:13.051Z,12817.6152
2023-04-29T00:12:14.435Z,12816.8457
2023-04-29T00:13:15.906Z,12814.0000
2023-04-29T00:14:17.348Z,12821.9229
2023-04-29T00:15:18.756Z,12815.4619
2023-04-29T00:16:20.100Z,12819.3848
2023-04-29T00:17:21.648Z,12815.8457
2023-04-29T00:18:22.906Z,12819.8457
2023-04-29T00:19:24.533Z,12825.6924
2023-04-29T00:20:25.835Z,12822.6152
2023-04-29T00:21:27.294Z,12819.2305
2023-04-29T00:22:28.749Z,12818.0771
2023-04-29T00:23:30.122Z,12825.1543
2023-04-29T00:24:31.655Z,12835.7695
2023-04-29T00:25:33.009Z,12836.8457
2023-04-29T00:26:34.486Z,12835.8457
2023-04-29T00:27:35.807Z,12828.1543
2023-04-29T00:28:37.246Z,12821.3076
2023-04-29T00:29:38.694Z,12832.8457
2023-04-29T00:30:40.153Z,12824.6152
2023-04-29T00:31:41.511Z,12828.9229
2023-04-29T00:32:42.987Z,12833.5381
2023-04-29T00:33:44.372Z,12828.0000
2023-04-29T00:34:45.882Z,12828.3848
2023-04-29T00:35:47.224Z,12830.6152
2023-04-29T00:36:48.680Z,12826.9229
2023-04-29T00:37:50.076Z,12828.0000
2023-04-29T00:38:51.502Z,12831.6924
2023-04-29T00:39:53.178Z,12833.7695
2023-04-29T00:40:54.432Z,12829.6924
2023-04-29T00:41:55.770Z,12835.6152
2023-04-29T00:42:57.262Z,12833.3848
2023-04-29T00:43:58.627Z,12831.5381
2023-04-29T00:45:00.164Z,12841.1543
2023-04-29T00:46:01.539Z,12839.9229
2023-04-29T00:47:02.964Z,12840.4619
2023-04-29T00:48:04.435Z,12837.3848
2023-04-29T00:49:05.805Z,12832.6924
2023-04-29T00:50:07.224Z,12835.0771
2023-04-29T00:51:08.692Z,12839.8457
2023-04-29T00:52:10.037Z,12844.5381
2023-04-29T00:53:11.488Z,12842.4619
2023-04-29T00:54:12.905Z,12846.6924
2023-04-29T00:55:14.391Z,12845.3076
2023-04-29T00:56:15.834Z,12845.1543
2023-04-29T00:57:17.235Z,12839.8457
2023-04-29T00:58:18.624Z,12834.9229
2023-04-29T00:59:20.063Z,12836.2305
2023-04-29T01:00:21.555Z,12840.9229
2023-04-29T01:01:22.950Z,12842.8457
2023-04-29T01:02:24.377Z,12844.4619
2023-04-29T01:03:25.873Z,12840.6924
2023-04-29T01:04:27.169Z,12836.6924
2023-04-29T01:05:28.596Z,12840.4619
2023-04-29T01:06:30.081Z,12847.9229
2023-04-29T01:07:31.488Z,12847.6152
2023-04-29T01:08:32.861Z,12843.6924
2023-04-29T01:09:34.277Z,12846.4619
2023-04-29T01:10:35.823Z,12843.7695
2023-04-29T01:11:37.277Z,12843.7695
2023-04-29T01:12:38.654Z,12845.6152
2023-04-29T01:13:40.138Z,12848.0771
2023-04-29T01:14:41.417Z,12851.0000
2023-04-29T01:15:42.910Z,12846.3076
2023-04-29T01:16:44.233Z,12844.3076
2023-04-29T01:17:45.794Z,12852.3848
2023-04-29T01:18:47.113Z,12849.0000
2023-04-29T01:19:48.592Z,12844.0771
2023-04-29T01:20:49.966Z,12848.3076
2023-04-29T01:21:51.486Z,12847.2305
2023-04-29T01:22:52.877Z,12846.6152
2023-04-29T01:23:54.249Z,12855.3848
2023-04-29T01:24:55.724Z,12848.0000
2023-04-29T01:25:57.096Z,12849.4619
2023-04-29T01:26:58.517Z,12853.8457
2023-04-29T01:28:00.031Z,12853.5381
2023-04-29T01:29:01.399Z,12854.9229
2023-04-29T01:30:02.842Z,12846.8457
2023-04-29T01:31:04.252Z,12848.2305
2023-04-29T01:32:05.673Z,12847.7695
2023-04-29T01:33:07.141Z,12848.6924
2023-04-29T01:34:08.550Z,12843.0771
2023-04-29T01:35:09.903Z,12853.0771
2023-04-29T01:36:11.375Z,12852.6152
2023-04-29T01:37:12.759Z,12851.7695
2023-04-29T01:38:14.270Z,12855.2305
2023-04-29T01:39:15.624Z,12851.1543
2023-04-29T01:40:17.074Z,12852.0000
2023-04-29T01:41:18.491Z,12845.7695
2023-04-29T01:42:19.932Z,12847.6924
2023-04-29T01:43:21.371Z,12852.0771
2023-04-29T01:44:22.794Z,12850.2305
2023-04-29T01:45:24.167Z,12845.9229
2023-04-29T01:46:25.661Z,12846.4619
2023-04-29T01:47:27.059Z,12848.3848
2023-04-29T01:48:28.506Z,12848.7695
2023-04-29T01:49:29.875Z,12854.2305
2023-04-29T01:50:31.329Z,12852.2305
2023-04-29T01:51:32.724Z,12850.4619
2023-04-29T01:52:34.156Z,12852.0771
2023-04-29T01:53:35.585Z,12852.3076
2023-04-29T01:54:37.096Z,12853.5381
2023-04-29T01:55:38.459Z,12854.6152
2023-04-29T01:56:39.966Z,12851.6924
2023-04-29T01:57:41.367Z,12850.0771
2023-04-29T01:58:42.764Z,12849.8457
2023-04-29T01:59:44.125Z,12851.3076
2023-04-29T02:00:45.689Z,12851.6924
2023-04-29T02:01:46.974Z,12856.4619
2023-04-29T02:02:48.513Z,12861.3848
2023-04-29T02:03:50.050Z,12858.6152
2023-04-29T02:04:51.371Z,12853.4619
2023-04-29T02:05:52.673Z,12851.0771
2023-04-29T02:06:54.129Z,12857.1543
2023-04-29T02:07:55.528Z,12857.2305
2023-04-29T02:08:56.989Z,12860.4619
2023-04-29T02:09:58.287Z,12862.6152
2023-04-29T02:10:59.834Z,12862.9229
2023-04-29T02:12:01.227Z,12854.2305
2023-04-29T02:13:02.700Z,12861.4619
2023-04-29T02:14:04.096Z,12860.3076
2023-04-29T02:15:05.526Z,12856.5381
2023-04-29T02:16:06.921Z,12859.3848
2023-04-29T02:17:08.347Z,12855.9229
2023-04-29T02:18:09.761Z,12857.9229
2023-04-29T02:19:11.812Z,12859.6152
2023-04-29T02:20:12.628Z,12857.3076
2023-04-29T02:21:14.086Z,12861.3076
2023-04-29T02:22:15.480Z,12860.0000
2023-04-29T02:23:16.956Z,12857.7695
2023-04-29T02:24:18.359Z,12859.5381
2023-04-29T02:25:19.772Z,12860.6152
2023-04-29T02:26:21.141Z,12863.7695
2023-04-29T02:27:22.598Z,12861.3076
2023-04-29T02:28:23.991Z,12861.6152
2023-04-29T02:29:25.510Z,12861.6924
2023-04-29T02:30:26.843Z,12860.3076
2023-04-29T02:31:28.295Z,12858.6152
2023-04-29T02:32:29.807Z,12855.7695
2023-04-29T02:33:31.157Z,12849.0000
2023-04-29T02:34:32.603Z,12843.4619
2023-04-29T02:35:33.976Z,12845.6152
2023-04-29T02:36:35.450Z,12842.3848
2023-04-29T02:37:36.880Z,12844.0000
2023-04-29T02:38:38.341Z,12842.3076
2023-04-29T02:39:39.693Z,12842.0000
2023-04-29T02:40:41.141Z,12835.2305
2023-04-29T02:41:42.498Z,12837.0771
2023-04-29T02:42:43.966Z,12842.6152
2023-04-29T02:43:45.383Z,12836.6152
2023-04-29T02:44:46.867Z,12838.8457
2023-04-29T02:45:48.256Z,12838.9229
2023-04-29T02:46:49.689Z,12834.3076
2023-04-29T02:47:51.032Z,12839.7695
2023-04-29T02:48:52.548Z,12835.9229
2023-04-29T02:49:54.128Z,12835.0771
2023-04-29T02:50:55.414Z,12835.5381
2023-04-29T02:51:56.819Z,12840.0771
2023-04-29T02:52:58.276Z,12839.0771
2023-04-29T02:53:59.730Z,12837.3848
2023-04-29T02:55:01.068Z,12839.4619
2023-04-29T02:56:02.533Z,12843.7695
2023-04-29T02:57:03.985Z,12835.5381
2023-04-29T02:58:05.397Z,12834.6152
2023-04-29T02:59:06.827Z,12840.4619
2023-04-29T03:00:08.269Z,12839.5381
2023-04-29T03:01:09.718Z,12847.7695
2023-04-29T03:02:11.165Z,12844.6924
2023-04-29T03:03:12.593Z,12838.0000
2023-04-29T03:04:13.909Z,12844.0000
2023-04-29T03:05:15.408Z,12846.2305
2023-04-29T03:06:16.761Z,12847.4619
2023-04-29T03:07:18.157Z,12849.4619
2023-04-29T03:08:19.633Z,12850.6152
2023-04-29T03:09:21.061Z,12851.0771
2023-04-29T03:10:22.545Z,12849.8457
2023-04-29T03:11:23.930Z,12856.5381
2023-04-29T03:12:25.336Z,12845.9229
2023-04-29T03:13:26.802Z,12851.1543
2023-04-29T03:14:28.170Z,12856.1543
2023-04-29T03:15:29.694Z,12853.1543
2023-04-29T03:16:31.076Z,12850.0000
2023-04-29T03:17:32.531Z,12846.1543
2023-04-29T03:18:33.893Z,12852.7695
2023-04-29T03:19:35.370Z,12841.2305
2023-04-29T03:20:36.784Z,12848.3076
2023-04-29T03:21:38.183Z,12851.1543
2023-04-29T03:22:39.588Z,12850.2305
2023-04-29T03:23:41.038Z,12858.4619
2023-04-29T03:24:42.510Z,12865.3076
2023-04-29T03:25:44.023Z,12852.2305
2023-04-29T03:26:45.269Z,12864.3076
2023-04-29T03:27:46.726Z,12863.0771
2023-04-29T03:28:48.111Z,12863.2305
2023-04-29T03:29:49.587Z,12863.6152
2023-04-29T03:30:51.019Z,12864.0000
2023-04-29T03:31:52.439Z,12858.4619
2023-04-29T03:32:53.887Z,12859.1543
2023-04-29T03:33:55.258Z,12868.1543
2023-04-29T03:34:56.561Z,12873.8457
2023-04-29T03:35:58.135Z,12876.0771
2023-04-29T03:36:59.593Z,12870.3076
2023-04-29T03:38:01.072Z,12870.1543
2023-04-29T03:39:02.455Z,12872.2305
2023-04-29T03:40:03.923Z,12874.0000
2023-04-29T03:41:05.341Z,12875.4619
2023-04-29T03:42:06.733Z,12873.4619
2023-04-29T03:43:08.141Z,12871.0771
2023-04-29T03:44:09.606Z,12870.5381
2023-04-29T03:45:10.965Z,12877.6152
2023-04-29T03:46:12.493Z,12876.6152
2023-04-29T03:47:13.843Z,12873.3076
2023-04-29T03:48:15.270Z,12869.2305
2023-04-29T03:49:16.656Z,12870.5381
2023-04-29T03:50:18.036Z,12873.0000
2023-04-29T03:51:19.534Z,12867.8457
2023-04-29T03:52:20.975Z,12869.2305
2023-04-29T03:53:22.365Z,12873.4619
2023-04-29T03:54:23.787Z,12876.0000
2023-04-29T03:55:25.192Z,12877.1543
2023-04-29T03:56:26.709Z,12875.3076
2023-04-29T03:57:28.034Z,12876.7695
2023-04-29T03:58:29.486Z,12876.7695
2023-04-29T03:59:30.896Z,12878.3076
2023-04-29T04:00:32.284Z,12876.9229
2023-04-29T04:01:33.787Z,12874.5381
2023-04-29T04:02:35.408Z,12876.7695
2023-04-29T04:03:36.701Z,12872.7695
2023-04-29T04:04:38.212Z,12878.7695
2023-04-29T04:05:39.338Z,12882.0000
2023-04-29T04:06:40.912Z,12881.5381
2023-04-29T04:07:42.290Z,12878.9229
2023-04-29T04:08:43.766Z,12884.3848
2023-04-29T04:09:45.174Z,12879.3076
2023-04-29T04:10:46.560Z,12885.3848
2023-04-29T04:11:47.998Z,12880.1543
2023-04-29T04:12:49.419Z,12885.3076
2023-04-29T04:13:50.800Z,12883.7695
2023-04-29T04:14:52.276Z,12880.1543
2023-04-29T04:15:53.675Z,12884.2305
2023-04-29T04:16:55.165Z,12883.5381
2023-04-29T04:17:56.550Z,12881.0771
2023-04-29T04:18:57.983Z,12877.6152
2023-04-29T04:19:59.346Z,12884.6924
2023-04-29T04:21:00.821Z,12883.8457
2023-04-29T04:22:02.223Z,12883.7695
2023-04-29T04:23:03.656Z,12890.5381
2023-04-29T04:24:05.100Z,12888.6924
2023-04-29T04:25:06.490Z,12889.7695
2023-04-29T04:26:07.876Z,12888.3076
2023-04-29T04:27:09.354Z,12887.1543
2023-04-29T04:28:10.806Z,12888.5381
2023-04-29T04:29:12.159Z,12890.5381
2023-04-29T04:30:13.581Z,12886.0771
2023-04-29T04:31:15.112Z,12886.3076
2023-04-29T04:32:16.460Z,12891.6152
2023-04-29T04:33:17.919Z,12889.8457
2023-04-29T04:34:19.332Z,12891.0000
2023-04-29T04:35:20.741Z,12890.0000
2023-04-29T04:36:22.158Z,12892.6924
2023-04-29T04:37:23.631Z,12894.0000
2023-04-29T04:38:25.023Z,12892.6152
2023-04-29T04:39:26.455Z,12888.9229
2023-04-29T04:40:27.909Z,12887.1543
2023-04-29T04:41:29.254Z,12891.2305
2023-04-29T04:42:30.771Z,12895.1543
2023-04-29T04:43:32.068Z,12885.7695
2023-04-29T04:44:33.660Z,12866.6924
2023-04-29T04:45:34.985Z,12881.5381
2023-04-29T04:46:36.439Z,12880.1543
2023-04-29T04:47:37.799Z,12865.2305
2023-04-29T04:48:39.330Z,12878.8457
2023-04-29T04:49:40.755Z,12871.7695
2023-04-29T04:50:42.159Z,12847.6152
2023-04-29T04:51:43.572Z,12836.5381
2023-04-29T04:52:45.069Z,12829.3848
2023-04-29T04:53:46.501Z,12837.2305
2023-04-29T04:54:47.927Z,12842.7695
2023-04-29T04:55:49.341Z,12834.5381
2023-04-29T04:56:50.802Z,12841.7695
2023-04-29T04:57:52.169Z,12845.1543
2023-04-29T04:58:53.620Z,12853.3848
2023-04-29T04:59:55.064Z,12825.3848
2023-04-29T05:00:56.510Z,12838.6924
2023-04-29T05:01:57.862Z,12824.9229
2023-04-29T05:02:59.519Z,12819.6924
2023-04-29T05:04:00.871Z,12823.3076
2023-04-29T05:05:02.158Z,12836.9229
2023-04-29T05:06:03.536Z,12838.6152
2023-04-29T05:07:05.026Z,12832.2305
2023-04-29T05:08:06.478Z,12836.6152
2023-04-29T05:09:07.892Z,12852.0771
2023-04-29T05:10:09.270Z,12850.7695
2023-04-29T05:11:10.762Z,12843.6924
2023-04-29T05:12:12.118Z,12853.3076
2023-04-29T05:13:13.605Z,12827.2305
2023-04-29T05:14:15.060Z,12831.9229
2023-04-29T05:15:16.455Z,12838.9229
2023-04-29T05:16:17.874Z,12849.4619
2023-04-29T05:17:19.329Z,12856.0771
2023-04-29T05:18:20.702Z,12867.7695
2023-04-29T05:19:22.173Z,12867.0000
2023-04-29T05:20:23.537Z,12860.5381
2023-04-29T05:21:25.019Z,12864.9229
2023-04-29T05:22:26.381Z,12863.3076
2023-04-29T05:23:27.893Z,12867.2305
2023-04-29T05:24:29.286Z,12865.1543
2023-04-29T05:25:30.676Z,12864.9229
2023-04-29T05:26:32.118Z,12873.6152
2023-04-29T05:27:33.556Z,12878.3076
2023-04-29T05:28:35.030Z,12876.0771
2023-04-29T05:29:36.393Z,12877.6924
2023-04-29T05:30:38.000Z,12881.4619
2023-04-29T05:31:39.220Z,12880.3848
2023-04-29T05:32:40.738Z,12879.6152
2023-04-29T05:33:42.180Z,12882.6152
2023-04-29T05:34:43.629Z,12890.3848
2023-04-29T05:35:44.985Z,12888.3848
2023-04-29T05:36:46.337Z,12884.5381
2023-04-29T05:37:47.870Z,12886.4619
2023-04-29T05:38:49.287Z,12884.1543
2023-04-29T05:39:50.956Z,12889.3848
2023-04-29T05:40:52.084Z,12889.9229
2023-04-29T05:41:53.565Z,12891.2305
2023-04-29T05:42:54.997Z,12889.3848
2023-04-29T05:43:56.444Z,12890.8457
2023-04-29T05:44:57.861Z,12892.0771
2023-04-29T05:45:59.368Z,12898.9229
2023-04-29T05:47:00.696Z,12897.3848
2023-04-29T05:48:02.268Z,12895.3076
2023-04-29T05:49:03.538Z,12902.0771
2023-04-29T05:50:05.026Z,12909.2305
2023-04-29T05:51:06.348Z,12907.4619
2023-04-29T05:52:07.820Z,12907.0000
2023-04-29T05:53:09.190Z,12915.6152
2023-04-29T05:54:10.713Z,12914.0771
2023-04-29T05:55:12.080Z,12910.0771
2023-04-29T05:56:13.498Z,12916.3848
2023-04-29T05:57:14.895Z,12917.6152
2023-04-29T05:58:16.381Z,12919.4619
2023-04-29T05:59:17.817Z,12911.4619
2023-04-29T06:00:19.263Z,12911.2305
2023-04-29T06:01:20.610Z,12942.9229
2023-04-29T06:02:22.221Z,13017.0000
2023-04-29T06:03:23.581Z,13163.5381
2023-04-29T06:04:25.262Z,13315.6924
2023-04-29T06:05:26.593Z,13413.6924
2023-04-29T06:06:28.056Z,13518.9229
2023-04-29T06:07:29.169Z,13509.9229
2023-04-29T06:08:30.653Z,13570.1543
2023-04-29T06:09:32.007Z,13584.5381
2023-04-29T06:10:33.523Z,13561.6924
2023-04-29T06:11:34.869Z,13567.3848
2023-04-29T06:12:36.352Z,13694.7695
2023-04-29T06:13:37.737Z,13694.6924
2023-04-29T06:14:39.207Z,13681.0000
2023-04-29T06:15:40.628Z,13571.9229
2023-04-29T06:16:42.060Z,13696.0000
2023-04-29T06:17:43.468Z,13663.6924
2023-04-29T06:18:44.933Z,13646.0000
2023-04-29T06:19:46.219Z,13497.6152
2023-04-29T06:20:47.831Z,13563.3848
2023-04-29T06:21:49.175Z,13552.7695
2023-04-29T06:22:50.601Z,13488.9229
2023-04-29T06:23:52.016Z,13515.9229
2023-04-29T06:24:53.466Z,13529.5381
2023-04-29T06:25:54.813Z,13578.0771
2023-04-29T06:26:56.398Z,13599.0771
2023-04-29T06:27:57.690Z,13525.0000
2023-04-29T06:28:59.151Z,13542.0000
2023-04-29T06:30:00.482Z,13530.6152
2023-04-29T06:31:02.072Z,13463.2305
2023-04-29T06:32:03.528Z,13492.2305
2023-04-29T06:33:04.980Z,13564.3076
2023-04-29T06:34:06.289Z,13692.5381
2023-04-29T06:35:07.799Z,13733.0000
2023-04-29T06:36:09.249Z,13759.0771
2023-04-29T06:37:10.601Z,13752.6924
2023-04-29T06:38:11.971Z,13742.7695
2023-04-29T06:39:13.401Z,13778.8457
2023-04-29T06:40:14.830Z,13804.8457
2023-04-29T06:41:16.203Z,13797.1543
2023-04-29T06:42:17.768Z,13823.2305
2023-04-29T06:43:19.187Z,13834.9229
2023-04-29T06:44:20.548Z,13825.6152
2023-04-29T06:45:21.863Z,13779.7695
2023-04-29T06:46:23.446Z,13843.9229
2023-04-29T06:47:24.882Z,13852.0771
2023-04-29T06:48:26.243Z,13823.2305
2023-04-29T06:49:27.660Z,13800.5381
2023-04-29T06:50:29.132Z,13829.7695
2023-04-29T06:51:30.503Z,13825.3848
2023-04-29T06:52:32.023Z,13832.0000
2023-04-29T06:53:33.404Z,13855.7695
2023-04-29T06:54:34.840Z,13851.0000
2023-04-29T06:55:36.234Z,13850.9229
2023-04-29T06:56:37.663Z,13843.3076
2023-04-29T06:57:39.146Z,13831.0771
2023-04-29T06:58:40.643Z,13853.4619
2023-04-29T06:59:41.921Z,13838.5381
2023-04-29T07:00:43.458Z,13780.4619
2023-04-29T07:01:46.072Z,13753.6152
2023-04-29T07:02:46.306Z,13775.0000
2023-04-29T07:03:48.013Z,13762.2305
2023-04-29T07:04:49.212Z,13683.1543
2023-04-29T07:05:50.515Z,13660.0771
2023-04-29T07:06:51.948Z,13675.6924
2023-04-29T07:07:53.291Z,13642.6152
2023-04-29T07:08:56.901Z,13602.6924
2023-04-29T07:09:56.234Z,13499.3848
2023-04-29T07:10:57.648Z,13433.5381
2023-04-29T07:11:59.039Z,13435.5381
2023-04-29T07:13:00.490Z,13339.6924
2023-04-29T07:14:01.978Z,13280.4619
2023-04-29T07:15:03.363Z,13290.3076
2023-04-29T07:16:04.750Z,13135.4619
2023-04-29T07:17:06.432Z,13190.4619
2023-04-29T07:18:07.696Z,13149.1543
2023-04-29T07:19:09.051Z,13090.6152
2023-04-29T07:20:10.503Z,13015.8457
2023-04-29T07:21:11.938Z,12977.0000
2023-04-29T07:22:13.322Z,12820.6924
2023-04-29T07:23:14.844Z,12704.3076
2023-04-29T07:24:16.253Z,12906.5381
2023-04-29T07:25:17.697Z,12915.9229
2023-04-29T07:26:19.036Z,12990.8457
2023-04-29T07:27:20.521Z,12911.3076
2023-04-29T07:28:21.876Z,12943.6152
2023-04-29T07:29:23.412Z,12910.1543
2023-04-29T07:30:24.799Z,12890.2305
2023-04-29T07:31:26.205Z,12894.3076
2023-04-29T07:32:27.660Z,12900.4619
2023-04-29T07:33:29.067Z,12882.0771
2023-04-29T07:34:30.487Z,12830.6152
2023-04-29T07:35:32.035Z,12850.0771
2023-04-29T07:36:33.313Z,12758.4619
2023-04-29T07:37:34.760Z,12718.5381
2023-04-29T07:38:36.237Z,12755.4619
2023-04-29T07:39:37.726Z,12809.1543
2023-04-29T07:40:39.125Z,12667.0000
2023-04-29T07:41:40.563Z,12753.9229
2023-04-29T07:42:41.956Z,12671.0000
2023-04-29T07:43:43.354Z,12806.2305
2023-04-29T07:44:44.837Z,12801.3076
2023-04-29T07:45:46.258Z,12802.0771
2023-04-29T07:46:47.797Z,12788.4619
2023-04-29T07:47:49.136Z,12741.6924
2023-04-29T07:48:50.575Z,12749.0771
2023-04-29T07:49:51.988Z,12732.4619
2023-04-29T07:50:53.288Z,12815.3848
2023-04-29T07:51:54.807Z,12843.4619
2023-04-29T07:52:56.258Z,12812.3076
2023-04-29T07:53:57.638Z,12780.7695
2023-04-29T07:54:59.141Z,12784.8457
2023-04-29T07:56:00.567Z,12742.3848
2023-04-29T07:57:01.972Z,12742.0000
2023-04-29T07:58:03.340Z,12775.5381
2023-04-29T07:59:04.785Z,12730.3076
2023-04-29T08:00:06.148Z,12784.0000
2023-04-29T08:01:07.636Z,12795.8457
2023-04-29T08:02:09.050Z,12777.5381
2023-04-29T08:03:10.626Z,12775.0771
2023-04-29T08:04:12.105Z,12714.0000
2023-04-29T08:05:13.659Z,12764.5381
2023-04-29T08:06:14.844Z,12742.7695
2023-04-29T08:07:16.254Z,12780.3076
2023-04-29T08:08:17.599Z,12743.4619
2023-04-29T08:09:19.001Z,12748.8457
2023-04-29T08:10:20.495Z,12717.3076
2023-04-29T08:11:21.863Z,12673.0000
2023-04-29T08:12:23.319Z,12743.1543
2023-04-29T08:13:24.717Z,12759.4619
2023-04-29T08:14:26.170Z,12743.4619
2023-04-29T08:15:27.609Z,12720.3848
2023-04-29T08:16:29.078Z,12749.9229
2023-04-29T08:17:30.518Z,12788.9229
2023-04-29T08:18:31.912Z,12776.8457
2023-04-29T08:19:33.336Z,12753.6924
2023-04-29T08:20:34.799Z,12768.3076
2023-04-29T08:21:36.124Z,12769.1543
2023-04-29T08:22:37.520Z,12775.7695
2023-04-29T08:23:38.983Z,12775.8457
2023-04-29T08:24:40.458Z,12756.6924
2023-04-29T08:25:41.900Z,12729.2305
2023-04-29T08:26:43.292Z,12712.6152
2023-04-29T08:27:44.685Z,12754.3848
2023-04-29T08:28:46.142Z,12708.0771
2023-04-29T08:29:47.543Z,12711.0771
2023-04-29T08:30:48.962Z,12740.0000
2023-04-29T08:31:50.486Z,12695.0000
2023-04-29T08:32:51.920Z,12693.8457
2023-04-29T08:33:53.227Z,12786.1543
2023-04-29T08:34:54.939Z,12772.9229
2023-04-29T08:35:56.222Z,12782.2305
2023-04-29T08:36:57.578Z,12784.0771
2023-04-29T08:37:58.924Z,12719.4619
2023-04-29T08:39:00.402Z,12767.6152
2023-04-29T08:40:01.793Z,12786.2305
2023-04-29T08:41:03.362Z,12781.8457
2023-04-29T08:42:04.597Z,12781.6152
2023-04-29T08:43:06.114Z,12771.2305
2023-04-29T08:44:07.521Z,12764.3848
2023-04-29T08:45:08.992Z,12765.4619
2023-04-29T08:46:10.411Z,12774.0000
2023-04-29T08:47:11.820Z,12759.0771
2023-04-29T08:48:13.280Z,12782.3076
2023-04-29T08:49:14.673Z,12847.4619
2023-04-29T08:50:15.994Z,12832.4619
2023-04-29T08:51:17.577Z,12802.6152
2023-04-29T08:52:18.926Z,12793.3076
2023-04-29T08:53:20.354Z,12777.3076
2023-04-29T08:54:21.797Z,12779.2305
2023-04-29T08:55:23.258Z,12791.4619
2023-04-29T08:56:26.721Z,12798.3076
2023-04-29T08:57:26.036Z,12749.9229
2023-04-29T08:58:27.479Z,12749.6152
2023-04-29T08:59:28.965Z,12767.6924
2023-04-29T09:00:30.342Z,12765.7695
2023-04-29T09:01:31.853Z,12728.6152
2023-04-29T09:02:33.361Z,12675.0000
2023-04-29T09:03:34.720Z,12742.1543
2023-04-29T09:04:36.150Z,12827.6924
2023-04-29T09:05:37.490Z,12809.3848
2023-04-29T09:06:38.857Z,12787.5381
2023-04-29T09:07:40.364Z,12810.5381
2023-04-29T09:08:41.765Z,12800.0000
2023-04-29T09:09:43.169Z,12806.3848
2023-04-29T09:10:44.597Z,12781.0771
2023-04-29T09:11:46.016Z,12788.0771
2023-04-29T09:12:47.501Z,12812.8457
2023-04-29T09:13:48.823Z,12793.3076
2023-04-29T09:14:50.536Z,12789.1543
2023-04-29T09:15:51.697Z,12938.1543
2023-04-29T09:16:53.303Z,13091.6152
2023-04-29T09:17:54.632Z,12972.1543
2023-04-29T09:18:55.999Z,12870.6152
2023-04-29T09:19:57.306Z,12845.1543
2023-04-29T09:20:58.863Z,12853.5381
2023-04-29T09:22:00.293Z,12916.3076
2023-04-29T09:23:01.806Z,12884.6152
2023-04-29T09:24:03.122Z,12860.9229
2023-04-29T09:25:04.564Z,12870.4619
2023-04-29T09:26:05.954Z,12855.6152
2023-04-29T09:27:07.465Z,12844.3076
2023-04-29T09:28:08.889Z,12849.9229
2023-04-29T09:29:10.298Z,12874.4619
2023-04-29T09:30:11.671Z,12839.0771
2023-04-29T09:31:13.168Z,12846.2305
2023-04-29T09:32:14.586Z,12861.3076
2023-04-29T09:33:16.071Z,12864.6152
2023-04-29T09:34:17.327Z,12850.9229
2023-04-29T09:35:18.885Z,12839.3076
2023-04-29T09:36:20.257Z,12844.4619
2023-04-29T09:37:21.773Z,12852.8457
2023-04-29T09:38:23.183Z,12853.3076
2023-04-29T09:39:24.516Z,12847.0000
2023-04-29T09:40:26.019Z,12840.5381
2023-04-29T09:41:27.390Z,12843.3848
2023-04-29T09:42:28.809Z,12843.9229
2023-04-29T09:43:30.279Z,12850.7695
2023-04-29T09:44:34.294Z,12848.3848
2023-04-29T09:45:33.107Z,12849.4619
2023-04-29T09:46:34.597Z,12847.3076
2023-04-29T09:47:36.072Z,12850.3076
2023-04-29T09:48:37.424Z,12846.3076
2023-04-29T09:49:38.913Z,12847.3076
2023-04-29T09:50:40.252Z,12846.2305
2023-04-29T09:51:41.679Z,12848.4619
2023-04-29T09:52:43.031Z,12860.7695
2023-04-29T09:53:44.617Z,12851.8457
2023-04-29T09:54:45.977Z,12849.3848
2023-04-29T09:55:47.363Z,12846.0771
2023-04-29T09:56:48.773Z,12804.4619
2023-04-29T09:57:50.226Z,12786.0000
2023-04-29T09:58:51.696Z,12806.4619
2023-04-29T09:59:53.063Z,12820.6924
2023-04-29T10:00:54.464Z,12828.9229
2023-04-29T10:01:56.239Z,12833.0771
2023-04-29T10:02:57.486Z,12833.7695
2023-04-29T10:03:58.901Z,12832.7695
2023-04-29T10:05:00.233Z,12836.6152
2023-04-29T10:06:01.671Z,12835.4619
2023-04-29T10:07:03.032Z,12834.4619
2023-04-29T10:08:04.505Z,12835.1543
2023-04-29T10:09:05.918Z,12834.5381
2023-04-29T10:10:07.327Z,12833.2305
2023-04-29T10:11:08.709Z,12840.3076
2023-04-29T10:12:10.171Z,12843.5381
2023-04-29T10:13:11.501Z,12841.5381
2023-04-29T10:14:13.028Z,12839.9229
2023-04-29T10:15:14.420Z,12839.5381
2023-04-29T10:16:15.894Z,12849.0000
2023-04-29T10:17:17.157Z,12850.0771
2023-04-29T10:18:18.790Z,12851.2305
2023-04-29T10:19:20.157Z,12852.9229
2023-04-29T10:20:21.594Z,12854.6152
2023-04-29T10:21:22.913Z,12853.0771
2023-04-29T10:22:24.372Z,12853.6924
2023-04-29T10:23:25.824Z,12851.9229
2023-04-29T10:24:27.320Z,12854.7695
2023-04-29T10:25:28.683Z,12857.2305
2023-04-29T10:26:30.098Z,12857.5381
2023-04-29T10:27:31.514Z,12856.9229
2023-04-29T10:28:32.954Z,12858.3076
2023-04-29T10:29:34.399Z,12861.2305
2023-04-29T10:30:35.780Z,12868.8457
2023-04-29T10:31:37.265Z,12869.1543
2023-04-29T10:33:40.150Z,12871.5381
2023-04-29T10:34:41.529Z,12877.0771
2023-04-29T10:35:42.997Z,12875.2305
2023-04-29T10:36:44.230Z,12875.3076
2023-04-29T10:37:45.774Z,12875.8457
2023-04-29T10:38:47.182Z,12890.2305
2023-04-29T10:39:48.654Z,12898.9229
2023-04-29T10:40:50.000Z,12893.9229
2023-04-29T10:41:51.469Z,12877.8457
2023-04-29T10:42:52.849Z,12874.9229
2023-04-29T10:43:54.349Z,12883.5381
2023-04-29T10:44:55.741Z,12885.6924
2023-04-29T10:45:57.235Z,12888.0000
2023-04-29T10:46:58.687Z,12891.1543
2023-04-29T10:48:00.051Z,12889.7695
2023-04-29T10:49:01.452Z,12888.5381
2023-04-29T10:50:02.846Z,12894.6152
2023-04-29T10:51:04.374Z,12890.0000
2023-04-29T10:52:05.687Z,12891.1543
2023-04-29T10:53:07.149Z,12897.3848
2023-04-29T10:54:08.561Z,12895.6152
2023-04-29T10:55:10.013Z,12899.9229
2023-04-29T10:56:11.368Z,12901.1543
2023-04-29T10:57:12.828Z,12899.0000
2023-04-29T10:58:14.222Z,13154.6152
2023-04-29T10:59:15.701Z,13334.3848
2023-04-29T11:00:17.142Z,13341.0000
2023-04-29T11:01:18.592Z,13429.5381
2023-04-29T11:02:19.974Z,13394.0771
2023-04-29T11:03:21.528Z,13473.3848
2023-04-29T11:04:22.817Z,13563.8457
2023-04-29T11:05:25.146Z,13565.0771
2023-04-29T11:06:25.760Z,13510.2305
2023-04-29T11:07:27.142Z,13510.3076
2023-04-29T11:08:28.461Z,13487.9229
2023-04-29T11:09:29.953Z,13441.3848
2023-04-29T11:10:31.265Z,13648.8457
2023-04-29T11:11:32.830Z,13709.4619
2023-04-29T11:12:34.220Z,13637.5381
2023-04-29T11:13:35.677Z,13701.4619
2023-04-29T11:14:37.031Z,13767.1543
2023-04-29T11:15:38.418Z,13782.3076
2023-04-29T11:16:39.975Z,13775.4619
2023-04-29T11:17:41.481Z,13657.6924
2023-04-29T11:18:42.781Z,13661.9229
2023-04-29T11:19:44.254Z,13701.2305
2023-04-29T11:20:45.669Z,13778.0000
2023-04-29T11:21:47.177Z,13740.0000
2023-04-29T11:22:48.506Z,13771.3076